»·PEaware :: N5664 O09-KOAK

N5664 :: O09-KOAK

FLIGHT INFORMATION

Flight Status: Arrived
Operator: Privately registered:
United States
More flights under this callsign
Pilot: Colin T. (23854)
Aircraft: CESSNA T210 TURBO CENTURION
(T210)
More flights by this aircraft type
Origin: O09 Round Valley
United States
Destination: KOAK Metro Oakland Intl
United States
More flights between these airports :: More routes between these airports
Route: +
File this flight plan on PilotEdge
Remarks:
Altitude:
(Current/Filed)
7,500ft
Speed:
(Current/Filed)
0kts
Departed: 04-May-19 09:10 PM
Arrived: 04-May-19 10:00 PM
Distance/Time
Traveled:
133nm/0:49
Distance/Time
To Go:
Arrived

Flight Plot

Page will automatically refresh every two minutes.

Flight plan parsing failed; only flown route is shown


Map Options




Map Legend


Flown Route
Filed Route
Departure Airport
Arrival Airport
Navaid (VOR, NDB)
Fix

Horizontal Profiles

Position Reports

Time Latitude Longitude Heading Altitude Ground
Speed
04-May-19 21:08 39.662356 -123.207834 161 7571ft 107kts
04-May-19 21:09 39.624538 -123.190685 160 7443ft 167kts
04-May-19 21:10 39.580763 -123.170906 159 7485ft 167kts
04-May-19 21:11 39.537051 -123.151034 160 7484ft 164kts
04-May-19 21:12 39.493817 -123.131508 160 7483ft 164kts
04-May-19 21:13 39.450595 -123.111974 160 7487ft 164kts
04-May-19 21:14 39.407394 -123.092474 160 7486ft 164kts
04-May-19 21:15 39.364179 -123.073008 160 7486ft 164kts
04-May-19 21:16 39.320948 -123.053527 160 7486ft 164kts
04-May-19 21:17 39.277168 -123.036484 165 7489ft 164kts
04-May-19 21:18 39.232544 -123.023039 166 7486ft 164kts
04-May-19 21:19 39.187799 -123.009867 166 7487ft 165kts
04-May-19 21:20 39.142713 -122.996631 166 7486ft 167kts
04-May-19 21:21 39.097468 -122.983375 166 7486ft 167kts
04-May-19 21:22 39.052212 -122.970142 166 7487ft 167kts
04-May-19 21:23 39.006814 -122.956863 166 7485ft 167kts
04-May-19 21:24 38.961635 -122.943688 166 7486ft 167kts
04-May-19 21:25 38.916276 -122.930489 166 7486ft 167kts
04-May-19 21:27 38.872400 -122.917660 166 7488ft 167kts
04-May-19 21:28 38.827109 -122.904539 166 7486ft 167kts
04-May-19 21:29 38.781774 -122.891380 166 7512ft 165kts
04-May-19 21:30 38.737118 -122.878414 166 7513ft 164kts
04-May-19 21:31 38.692450 -122.865500 167 7516ft 165kts
04-May-19 21:32 38.647742 -122.852575 167 7516ft 164kts
04-May-19 21:33 38.603101 -122.839661 166 7513ft 164kts
04-May-19 21:34 38.558337 -122.826783 166 7513ft 165kts
04-May-19 21:35 38.514629 -122.810481 146 7517ft 164kts
04-May-19 21:36 38.480083 -122.771936 135 7513ft 165kts
04-May-19 21:37 38.448092 -122.730098 134 7513ft 165kts
04-May-19 21:38 38.416316 -122.687740 134 7511ft 165kts
04-May-19 21:39 38.384535 -122.645407 133 7540ft 166kts
04-May-19 21:40 38.352238 -122.602326 133 7536ft 164kts
04-May-19 21:41 38.321353 -122.561275 133 6811ft 161kts
04-May-19 21:42 38.290500 -122.520278 133 6011ft 160kts
04-May-19 21:43 38.259567 -122.479205 133 5215ft 162kts
04-May-19 21:44 38.228218 -122.437626 134 4428ft 165kts
04-May-19 21:45 38.196005 -122.395020 135 3640ft 168kts
04-May-19 21:46 38.154618 -122.374604 179 2843ft 161kts
04-May-19 21:47 38.110094 -122.376382 182 2080ft 159kts
04-May-19 21:48 38.066216 -122.378155 184 1464ft 153kts
04-May-19 21:49 38.022456 -122.380020 184 1469ft 160kts
04-May-19 21:49 37.985185 -122.381594 184 1489ft 161kts
04-May-19 21:51 37.932951 -122.376856 156 1507ft 167kts
04-May-19 21:51 37.899033 -122.352695 151 1496ft 167kts
04-May-19 21:53 37.852256 -122.317957 152 1493ft 166kts
04-May-19 21:53 37.818978 -122.293318 150 1498ft 166kts
04-May-19 21:54 37.778847 -122.263603 151 1468ft 167kts
04-May-19 21:56 37.750087 -122.210616 121 1410ft 128kts
04-May-19 21:56 37.738225 -122.181005 118 1258ft 96kts
04-May-19 21:58 37.718985 -122.179501 261 835ft 94kts
04-May-19 21:58 37.724143 -122.202529 293 126ft 78kts
04-May-19 21:59 37.728166 -122.212801 339 10ft 8kts
04-May-19 22:00 37.729005 -122.211639 126 10ft 0kts

Navigation Log

Ident Type
Flight plan parsing failed, navigation log unavailable